Fazeley, United Kingdom
Current Conditions -  °F | °C
As of 3:50 PM on Saturday 25 Oct 2014 (Local Time) from EGBB Reporting Station
Broken Clouds Broken Clouds  
Wind Chill: 55°   Ceiling: 3900
Heat Index: 55°   Visibility: 6mi
Dew Point: 50°   Wind: 9mph
Humidity: 82%   Direction: 220°SW
Pressure: 30"   Gusts: NA
Location:  52.61°N, 1.7°W
Report Text: EGBB 251450Z 22008KT 180V240 9999 FEW018 BKN039 13/10 Q1016
Loading
Personal Weather Stations






























Interactive Weather Map
Tropical Storm Tracking
New forecast layout! Learn more

10-Day Weather Forecast

Advertisements
Track Severe Weather on mobile